createdAt,value
2023-04-17T00:00:35.068Z,247.45
2023-04-17T00:01:35.074Z,248.47
2023-04-17T00:02:35.203Z,249.20
2023-04-17T00:03:35.166Z,249.50
2023-04-17T00:04:35.329Z,246.82
2023-04-17T00:05:35.119Z,248.26
2023-04-17T00:06:35.085Z,250.00
2023-04-17T00:07:35.120Z,244.97
2023-04-17T00:08:35.100Z,248.11
2023-04-17T00:09:35.102Z,247.41
2023-04-17T00:10:35.181Z,248.43
2023-04-17T00:11:35.158Z,246.25
2023-04-17T00:12:35.168Z,246.70
2023-04-17T00:13:35.161Z,246.66
2023-04-17T00:14:35.187Z,250.00
2023-04-17T00:15:35.194Z,248.00
2023-04-17T00:16:35.241Z,249.65
2023-04-17T00:17:35.255Z,246.28
2023-04-17T00:18:35.237Z,248.78
2023-04-17T00:19:35.312Z,244.82
2023-04-17T00:20:35.361Z,247.37
2023-04-17T00:21:35.408Z,249.23
2023-04-17T00:22:35.467Z,248.11
2023-04-17T00:23:35.514Z,248.33
2023-04-17T00:24:35.620Z,246.32
2023-04-17T00:25:35.632Z,247.44
2023-04-17T00:26:35.701Z,246.83
2023-04-17T00:27:35.764Z,248.91
2023-04-17T00:28:35.811Z,246.02
2023-04-17T00:29:35.865Z,248.14
2023-04-17T00:30:35.916Z,246.87
2023-04-17T00:31:35.985Z,248.34
2023-04-17T00:32:36.048Z,244.98
2023-04-17T00:33:36.029Z,247.68
2023-04-17T00:34:36.069Z,247.46
2023-04-17T00:35:36.095Z,248.02
2023-04-17T00:36:36.123Z,246.89
2023-04-17T00:37:36.240Z,246.17
2023-04-17T00:38:36.159Z,246.22
2023-04-17T00:39:36.181Z,247.59
2023-04-17T00:40:36.214Z,247.93
2023-04-17T00:41:36.210Z,245.91
2023-04-17T00:42:36.215Z,246.07
2023-04-17T00:43:36.304Z,244.22
2023-04-17T00:44:36.267Z,243.31
2023-04-17T00:45:36.273Z,243.81
2023-04-17T00:46:36.293Z,245.89
2023-04-17T00:47:36.303Z,245.08
2023-04-17T00:48:36.333Z,245.51
2023-04-17T00:49:36.305Z,243.33
2023-04-17T00:50:36.325Z,244.81
2023-04-17T00:51:36.321Z,243.55
2023-04-17T00:52:36.315Z,243.58
2023-04-17T00:53:36.323Z,244.58
2023-04-17T00:54:36.346Z,243.27
2023-04-17T00:55:36.304Z,242.18
2023-04-17T00:56:36.341Z,240.76
2023-04-17T00:57:36.329Z,246.90
2023-04-17T00:58:36.338Z,244.45
2023-04-17T00:59:36.332Z,245.39
2023-04-17T01:00:36.367Z,244.18
2023-04-17T01:01:36.390Z,241.73
2023-04-17T01:02:36.556Z,244.56
2023-04-17T01:03:36.521Z,245.07
2023-04-17T01:04:36.362Z,244.28
2023-04-17T01:05:36.388Z,243.18
2023-04-17T01:06:36.411Z,244.31
2023-04-17T01:07:36.393Z,244.07
2023-04-17T01:08:36.397Z,243.26
2023-04-17T01:09:36.406Z,244.35
2023-04-17T01:10:36.491Z,244.59
2023-04-17T01:11:36.575Z,247.64
2023-04-17T01:12:36.498Z,245.17
2023-04-17T01:13:36.483Z,246.52
2023-04-17T01:14:36.513Z,248.20
2023-04-17T01:15:36.575Z,244.01
2023-04-17T01:16:36.597Z,245.60
2023-04-17T01:17:36.625Z,247.38
2023-04-17T01:18:36.594Z,249.58
2023-04-17T01:19:36.579Z,248.86
2023-04-17T01:20:36.624Z,246.16
2023-04-17T01:21:36.678Z,244.94
2023-04-17T01:22:36.701Z,246.41
2023-04-17T01:23:36.696Z,246.07
2023-04-17T01:24:36.741Z,248.69
2023-04-17T01:25:36.786Z,246.43
2023-04-17T01:26:36.856Z,243.95
2023-04-17T01:27:36.852Z,245.29
2023-04-17T01:28:36.872Z,245.90
2023-04-17T01:29:36.946Z,243.96
2023-04-17T01:30:37.014Z,244.48
2023-04-17T01:31:37.053Z,245.53
2023-04-17T01:32:37.148Z,242.62
2023-04-17T01:33:37.126Z,245.55
2023-04-17T01:34:37.686Z,245.30
2023-04-17T01:35:37.276Z,242.42
2023-04-17T01:36:37.305Z,243.16
2023-04-17T01:37:37.385Z,246.04
2023-04-17T01:38:37.428Z,245.27
2023-04-17T01:39:37.483Z,244.04
2023-04-17T01:40:37.524Z,245.54
2023-04-17T01:41:37.612Z,242.86
2023-04-17T01:42:37.678Z,243.18
2023-04-17T01:43:37.733Z,245.16
2023-04-17T01:44:37.764Z,244.65
2023-04-17T01:45:37.851Z,243.84
2023-04-17T01:46:37.985Z,245.12
2023-04-17T01:47:38.068Z,246.13
2023-04-17T01:48:38.037Z,243.98
2023-04-17T01:49:38.090Z,245.62
2023-04-17T01:50:38.136Z,246.42
2023-04-17T01:51:38.200Z,245.80
2023-04-17T01:52:38.302Z,247.44
2023-04-17T01:53:38.364Z,244.64
2023-04-17T01:54:38.525Z,243.52
2023-04-17T01:55:38.463Z,244.97
2023-04-17T01:56:38.543Z,247.57
2023-04-17T01:57:38.608Z,246.25
2023-04-17T01:58:38.656Z,247.56
2023-04-17T01:59:38.726Z,247.02
2023-04-17T02:00:38.780Z,245.18
2023-04-17T02:01:38.871Z,247.22
2023-04-17T02:02:39.104Z,245.65
2023-04-17T02:03:39.142Z,245.19
2023-04-17T02:04:39.027Z,245.72
2023-04-17T02:05:39.038Z,245.20
2023-04-17T02:06:39.146Z,245.58
2023-04-17T02:07:39.158Z,249.29
2023-04-17T02:08:39.232Z,245.07
2023-04-17T02:09:39.245Z,244.96
2023-04-17T02:10:39.302Z,246.19
2023-04-17T02:11:39.376Z,244.69
2023-04-17T02:12:39.434Z,245.43
2023-04-17T02:13:39.530Z,244.60
2023-04-17T02:14:39.538Z,243.81
2023-04-17T02:15:39.606Z,244.65
2023-04-17T02:16:39.725Z,244.35
2023-04-17T02:17:39.756Z,241.90
2023-04-17T02:18:39.755Z,243.74
2023-04-17T02:19:39.800Z,245.58
2023-04-17T02:20:39.858Z,241.36
2023-04-17T02:21:39.904Z,242.75
2023-04-17T02:22:39.988Z,241.47
2023-04-17T02:23:40.011Z,241.66
2023-04-17T02:24:40.072Z,241.82
2023-04-17T02:25:40.134Z,239.79
2023-04-17T02:26:40.178Z,239.81
2023-04-17T02:27:40.180Z,240.66
2023-04-17T02:28:40.272Z,238.29
2023-04-17T02:29:40.298Z,238.47
2023-04-17T02:30:40.356Z,237.64
2023-04-17T02:31:40.454Z,239.78
2023-04-17T02:32:40.469Z,238.90
2023-04-17T02:33:40.487Z,236.83
2023-04-17T02:34:40.527Z,238.84
2023-04-17T02:35:40.592Z,239.44
2023-04-17T02:36:40.650Z,236.51
2023-04-17T02:37:40.684Z,236.76
2023-04-17T02:38:40.693Z,237.57
2023-04-17T02:39:40.766Z,235.94
2023-04-17T02:40:40.804Z,236.38
2023-04-17T02:41:40.875Z,235.24
2023-04-17T02:42:40.947Z,238.66
2023-04-17T02:43:40.963Z,238.68
2023-04-17T02:44:41.012Z,238.50
2023-04-17T02:45:41.071Z,239.97
2023-04-17T02:46:41.154Z,236.67
2023-04-17T02:47:41.127Z,236.92
2023-04-17T02:48:41.177Z,240.72
2023-04-17T02:49:41.200Z,237.61
2023-04-17T02:50:41.241Z,239.49
2023-04-17T02:51:41.277Z,239.71
2023-04-17T02:52:41.313Z,236.60
2023-04-17T02:53:41.390Z,235.52
2023-04-17T02:54:41.398Z,238.31
2023-04-17T02:55:41.540Z,240.55
2023-04-17T02:56:41.493Z,237.11
2023-04-17T02:57:41.572Z,236.84
2023-04-17T02:58:41.581Z,238.33
2023-04-17T02:59:41.630Z,239.11
2023-04-17T03:00:41.695Z,238.31
2023-04-17T03:01:41.769Z,238.00
2023-04-17T03:02:41.832Z,236.11
2023-04-17T03:03:42.184Z,237.67
2023-04-17T03:04:41.791Z,238.29
2023-04-17T03:05:41.829Z,236.44
2023-04-17T03:06:41.865Z,240.03
2023-04-17T03:07:41.925Z,238.18
2023-04-17T03:08:41.969Z,237.53
2023-04-17T03:09:42.006Z,236.91
2023-04-17T03:10:42.052Z,240.67
2023-04-17T03:11:42.070Z,237.25
2023-04-17T03:12:42.126Z,238.45
2023-04-17T03:13:42.134Z,236.84
2023-04-17T03:14:42.168Z,236.18
2023-04-17T03:15:42.225Z,238.55
2023-04-17T03:16:42.300Z,234.63
2023-04-17T03:17:42.337Z,235.44
2023-04-17T03:18:42.344Z,234.46
2023-04-17T03:19:42.377Z,235.80
2023-04-17T03:20:42.404Z,232.95
2023-04-17T03:21:42.402Z,234.19
2023-04-17T03:22:42.484Z,234.02
2023-04-17T03:23:42.505Z,235.48
2023-04-17T03:24:42.567Z,233.57
2023-04-17T03:25:42.581Z,233.58
2023-04-17T03:26:42.617Z,234.41
2023-04-17T03:27:42.621Z,232.94
2023-04-17T03:28:42.664Z,232.99
2023-04-17T03:29:42.729Z,232.38
2023-04-17T03:30:42.725Z,230.10
2023-04-17T03:31:42.819Z,228.11
2023-04-17T03:32:42.821Z,229.87
2023-04-17T03:33:42.831Z,231.27
2023-04-17T03:34:42.876Z,229.04
2023-04-17T03:35:42.923Z,230.62
2023-04-17T03:36:42.937Z,230.51
2023-04-17T03:37:42.967Z,227.74
2023-04-17T03:38:42.977Z,229.08
2023-04-17T03:39:43.027Z,225.81
2023-04-17T03:40:43.062Z,228.05
2023-04-17T03:41:43.099Z,225.95
2023-04-17T03:42:43.073Z,228.17
2023-04-17T03:43:43.121Z,226.70
2023-04-17T03:44:43.122Z,227.72
2023-04-17T03:45:43.200Z,227.70
2023-04-17T03:46:43.209Z,227.38
2023-04-17T03:47:43.339Z,227.18
2023-04-17T03:48:43.270Z,226.82
2023-04-17T03:49:43.283Z,226.84
2023-04-17T03:50:43.301Z,223.71
2023-04-17T03:51:43.350Z,227.42
2023-04-17T03:52:43.404Z,227.21
2023-04-17T03:53:43.390Z,228.38
2023-04-17T03:54:43.434Z,226.23
2023-04-17T03:55:43.456Z,227.99
2023-04-17T03:56:44.416Z,227.29
2023-04-17T03:57:43.528Z,228.90
2023-04-17T03:58:43.543Z,227.70
2023-04-17T03:59:43.563Z,228.65
2023-04-17T04:00:43.589Z,229.77
2023-04-17T04:01:46.070Z,232.79
2023-04-17T04:02:43.775Z,230.54
2023-04-17T04:03:43.838Z,231.22
2023-04-17T04:04:43.781Z,229.13
2023-04-17T04:05:43.616Z,226.74
2023-04-17T04:06:43.576Z,229.32
2023-04-17T04:07:43.577Z,228.08
2023-04-17T04:08:43.623Z,231.17
2023-04-17T04:09:43.582Z,228.33
2023-04-17T04:10:43.558Z,231.07
2023-04-17T04:11:43.534Z,228.18
2023-04-17T04:12:43.565Z,227.40
2023-04-17T04:13:43.560Z,225.11
2023-04-17T04:14:43.521Z,225.02
2023-04-17T04:15:43.568Z,226.71
2023-04-17T04:16:43.516Z,228.22
2023-04-17T04:17:43.590Z,227.92
2023-04-17T04:18:43.518Z,225.49
2023-04-17T04:19:43.500Z,225.76
2023-04-17T04:20:43.508Z,227.74
2023-04-17T04:21:43.517Z,228.20
2023-04-17T04:22:43.492Z,225.79
2023-04-17T04:23:43.505Z,227.16
2023-04-17T04:24:43.489Z,228.76
2023-04-17T04:25:43.477Z,226.20
2023-04-17T04:26:43.448Z,230.13
2023-04-17T04:27:43.450Z,229.14
2023-04-17T04:28:43.455Z,228.71
2023-04-17T04:29:43.414Z,229.35
2023-04-17T04:30:43.435Z,229.06
2023-04-17T04:31:43.465Z,229.36
2023-04-17T04:32:43.429Z,229.32
2023-04-17T04:33:43.430Z,228.45
2023-04-17T04:34:43.387Z,227.77
2023-04-17T04:35:43.378Z,228.36
2023-04-17T04:36:43.366Z,228.97
2023-04-17T04:37:43.379Z,228.73
2023-04-17T04:38:43.397Z,229.87
2023-04-17T04:39:43.468Z,227.88
2023-04-17T04:40:43.345Z,229.25
2023-04-17T04:41:43.331Z,226.40
2023-04-17T04:42:43.317Z,227.85
2023-04-17T04:43:43.340Z,228.38
2023-04-17T04:44:43.315Z,227.14
2023-04-17T04:45:43.314Z,230.26
2023-04-17T04:46:43.375Z,225.93
2023-04-17T04:47:43.399Z,226.85
2023-04-17T04:48:43.306Z,229.09
2023-04-17T04:49:43.383Z,226.23
2023-04-17T04:50:43.262Z,230.67
2023-04-17T04:51:43.268Z,226.13
2023-04-17T04:52:43.284Z,227.45
2023-04-17T04:53:43.267Z,224.91
2023-04-17T04:54:43.259Z,229.83
2023-04-17T04:55:43.258Z,230.64
2023-04-17T04:56:43.247Z,226.53
2023-04-17T04:57:43.243Z,229.12
2023-04-17T04:58:43.262Z,228.77
2023-04-17T04:59:43.235Z,228.40
2023-04-17T05:00:43.302Z,228.55
2023-04-17T05:01:50.218Z,228.75
2023-04-17T05:02:43.265Z,229.21
2023-04-17T05:03:43.268Z,229.76
2023-04-17T05:04:43.185Z,230.59
2023-04-17T05:05:43.171Z,232.01
2023-04-17T05:06:43.196Z,231.63
2023-04-17T05:07:43.167Z,231.19
2023-04-17T05:08:43.172Z,232.51
2023-04-17T05:09:43.141Z,230.26
2023-04-17T05:10:43.145Z,233.37
2023-04-17T05:11:43.128Z,234.25
2023-04-17T05:12:43.132Z,232.62
2023-04-17T05:13:43.151Z,233.38
2023-04-17T05:14:43.119Z,233.96
2023-04-17T05:15:43.139Z,234.43
2023-04-17T05:16:43.173Z,232.73
2023-04-17T05:17:43.122Z,233.78
2023-04-17T05:18:43.087Z,230.83
2023-04-17T05:19:43.085Z,235.17
2023-04-17T05:20:43.062Z,236.67
2023-04-17T05:21:43.055Z,233.10
2023-04-17T05:22:43.076Z,234.34
2023-04-17T05:23:43.080Z,234.35
2023-04-17T05:24:43.061Z,233.26
2023-04-17T05:25:43.095Z,236.56
2023-04-17T05:26:43.031Z,233.03
2023-04-17T05:27:43.028Z,236.48
2023-04-17T05:28:43.045Z,235.92
2023-04-17T05:29:43.004Z,234.10
2023-04-17T05:30:43.022Z,234.45
2023-04-17T05:31:43.058Z,233.59
2023-04-17T05:32:43.103Z,235.78
2023-04-17T05:33:43.490Z,240.50
2023-04-17T05:34:43.036Z,243.90
2023-04-17T05:35:43.097Z,248.34
2023-04-17T05:36:43.191Z,247.35
2023-04-17T05:37:43.189Z,250.22
2023-04-17T05:38:45.530Z,250.00
2023-04-17T05:39:43.261Z,249.87
2023-04-17T05:40:43.239Z,256.56
2023-04-17T05:41:43.247Z,249.32
2023-04-17T05:42:43.275Z,248.34
2023-04-17T05:43:43.521Z,250.00
2023-04-17T05:44:43.214Z,250.00
2023-04-17T05:45:43.268Z,250.29
2023-04-17T05:46:50.208Z,250.00
2023-04-17T05:47:43.173Z,250.53
2023-04-17T05:48:43.512Z,253.06
2023-04-17T05:49:43.155Z,259.20
2023-04-17T05:50:43.142Z,269.31
2023-04-17T05:51:43.170Z,289.03
2023-04-17T05:52:43.120Z,279.82
2023-04-17T05:53:43.122Z,264.30
2023-04-17T05:54:43.142Z,251.60
2023-04-17T05:55:43.109Z,250.00
2023-04-17T05:56:43.148Z,250.00
2023-04-17T05:57:43.197Z,250.00
2023-04-17T05:58:43.086Z,248.59
2023-04-17T05:59:43.185Z,250.00
2023-04-17T06:00:44.111Z,250.29
2023-04-17T06:01:43.072Z,251.35
2023-04-17T06:02:43.354Z,253.86
2023-04-17T06:03:43.432Z,260.08
2023-04-17T06:04:43.808Z,267.64
2023-04-17T06:05:43.107Z,256.30
2023-04-17T06:06:43.078Z,249.68
2023-04-17T06:07:43.053Z,249.57
2023-04-17T06:08:43.043Z,248.52
2023-04-17T06:09:43.075Z,249.10
2023-04-17T06:10:43.182Z,248.58
2023-04-17T06:11:43.047Z,248.52
2023-04-17T06:12:43.014Z,249.01
2023-04-17T06:13:43.064Z,248.51
2023-04-17T06:14:43.019Z,249.10
2023-04-17T06:15:42.988Z,249.26
2023-04-17T06:16:43.010Z,249.72
2023-04-17T06:17:43.005Z,249.77
2023-04-17T06:18:42.995Z,248.71
2023-04-17T06:19:43.004Z,249.80
2023-04-17T06:20:43.023Z,249.80
2023-04-17T06:21:43.085Z,248.98
2023-04-17T06:22:43.123Z,248.55
2023-04-17T06:23:43.171Z,248.86
2023-04-17T06:24:43.261Z,249.32
2023-04-17T06:25:43.339Z,250.05
2023-04-17T06:26:43.348Z,249.92
2023-04-17T06:27:43.398Z,249.86
2023-04-17T06:28:43.468Z,248.53
2023-04-17T06:29:43.520Z,248.33
2023-04-17T06:30:43.660Z,249.48
2023-04-17T06:31:43.667Z,249.24
2023-04-17T06:32:43.759Z,249.60
2023-04-17T06:33:43.738Z,249.20
2023-04-17T06:34:56.331Z,249.84
2023-04-17T06:35:44.840Z,249.95
2023-04-17T06:36:43.806Z,250.22
2023-04-17T06:37:43.819Z,249.85
2023-04-17T06:38:43.784Z,248.61
2023-04-17T06:39:44.058Z,247.05
2023-04-17T06:40:43.809Z,240.61
2023-04-17T06:41:43.886Z,236.76
2023-04-17T06:42:43.891Z,230.60
2023-04-17T06:43:43.896Z,231.27
2023-04-17T06:44:43.950Z,229.05
2023-04-17T06:45:43.893Z,221.75
2023-04-17T06:46:43.983Z,215.65
2023-04-17T06:47:43.928Z,212.15
2023-04-17T06:48:43.936Z,207.35
2023-04-17T06:49:43.931Z,205.63
2023-04-17T06:50:43.929Z,199.61
2023-04-17T06:51:43.928Z,198.75
2023-04-17T06:52:43.945Z,194.04
2023-04-17T06:53:43.913Z,192.35
2023-04-17T06:54:43.958Z,186.49
2023-04-17T06:55:43.961Z,186.71
2023-04-17T06:56:43.929Z,187.05
2023-04-17T06:57:43.974Z,180.17
2023-04-17T06:58:44.973Z,180.10
2023-04-17T06:59:44.100Z,179.97
2023-04-17T07:00:43.944Z,177.23
2023-04-17T07:01:44.021Z,171.73
2023-04-17T07:02:44.099Z,168.92
2023-04-17T07:03:44.264Z,170.24
2023-04-17T07:04:44.090Z,169.56
2023-04-17T07:05:44.104Z,168.99
2023-04-17T07:06:44.560Z,165.45
2023-04-17T07:07:44.008Z,166.83
2023-04-17T07:08:44.012Z,167.68
2023-04-17T07:09:44.061Z,165.14
2023-04-17T07:10:44.061Z,163.66
2023-04-17T07:11:44.058Z,161.27
2023-04-17T07:12:44.073Z,157.62
2023-04-17T07:13:44.073Z,154.21
2023-04-17T07:14:44.092Z,154.49
2023-04-17T07:15:44.175Z,154.55
2023-04-17T07:16:44.094Z,154.32
2023-04-17T07:17:44.120Z,153.38
2023-04-17T07:18:44.070Z,150.89
2023-04-17T07:19:44.070Z,150.48
2023-04-17T07:20:44.066Z,148.22
2023-04-17T07:21:44.085Z,148.01
2023-04-17T07:22:44.063Z,147.44
2023-04-17T07:23:44.089Z,143.79
2023-04-17T07:24:44.098Z,142.20
2023-04-17T07:25:44.076Z,142.58
2023-04-17T07:26:44.108Z,144.28
2023-04-17T07:27:44.123Z,144.03
2023-04-17T07:28:44.145Z,143.88
2023-04-17T07:29:44.136Z,147.29
2023-04-17T07:30:44.134Z,150.82
2023-04-17T07:31:44.187Z,150.73
2023-04-17T07:32:44.190Z,151.88
2023-04-17T07:33:44.160Z,150.59
2023-04-17T07:34:44.161Z,149.37
2023-04-17T07:35:44.240Z,149.91
2023-04-17T07:36:44.164Z,142.33
2023-04-17T07:37:44.196Z,137.80
2023-04-17T07:38:44.245Z,129.98
2023-04-17T07:39:44.250Z,130.48
2023-04-17T07:40:44.251Z,133.73
2023-04-17T07:41:44.317Z,126.31
2023-04-17T07:42:45.085Z,96.55
2023-04-17T07:43:44.497Z,114.77
2023-04-17T07:44:44.533Z,115.92
2023-04-17T07:45:44.568Z,122.86
2023-04-17T07:46:44.851Z,121.63
2023-04-17T07:47:44.737Z,128.04
2023-04-17T07:48:44.722Z,125.33
2023-04-17T07:49:44.773Z,124.32
2023-04-17T07:50:44.845Z,123.93
2023-04-17T07:51:44.878Z,120.93
2023-04-17T07:52:44.978Z,119.56
2023-04-17T07:53:45.016Z,120.67
2023-04-17T07:54:45.014Z,116.82
2023-04-17T07:55:45.047Z,107.13
2023-04-17T07:56:45.131Z,106.81
2023-04-17T07:57:45.143Z,114.71
2023-04-17T07:58:45.226Z,114.35
2023-04-17T07:59:45.258Z,111.84
2023-04-17T08:00:45.264Z,104.84
2023-04-17T08:01:45.297Z,103.39
2023-04-17T08:02:45.478Z,99.88
2023-04-17T08:03:45.594Z,98.53
2023-04-17T08:04:45.517Z,98.89
2023-04-17T08:05:45.463Z,100.03
2023-04-17T08:06:45.456Z,92.07
2023-04-17T08:07:45.488Z,92.81
2023-04-17T08:08:45.579Z,91.49
2023-04-17T08:09:45.608Z,91.36
2023-04-17T08:10:45.637Z,90.00
2023-04-17T08:11:56.199Z,92.42
2023-04-17T08:12:46.670Z,92.70
2023-04-17T08:13:45.670Z,93.39
2023-04-17T08:14:45.653Z,95.85
2023-04-17T08:15:45.656Z,92.42
2023-04-17T08:16:45.686Z,92.76
2023-04-17T08:17:45.707Z,94.99
2023-04-17T08:18:45.660Z,96.81
2023-04-17T08:19:45.613Z,98.47
2023-04-17T08:20:45.609Z,99.92
2023-04-17T08:21:45.611Z,96.47
2023-04-17T08:22:45.575Z,88.35
2023-04-17T08:23:45.589Z,92.45
2023-04-17T08:24:45.591Z,94.96
2023-04-17T08:25:45.585Z,98.62
2023-04-17T08:26:45.606Z,99.20
2023-04-17T08:27:45.547Z,102.48
2023-04-17T08:28:45.563Z,103.22
2023-04-17T08:29:45.571Z,103.08
2023-04-17T08:30:45.573Z,104.88
2023-04-17T08:31:45.541Z,100.88
2023-04-17T08:32:45.677Z,101.41
2023-04-17T08:33:45.561Z,90.87
2023-04-17T08:34:45.601Z,60.39
2023-04-17T08:35:46.118Z,42.98
2023-04-17T08:36:45.665Z,23.14
2023-04-17T08:37:45.723Z,26.84
2023-04-17T08:38:45.719Z,27.46
2023-04-17T08:39:45.757Z,26.37
2023-04-17T08:40:46.108Z,16.26
2023-04-17T08:41:45.807Z,3.62
2023-04-17T08:42:45.837Z,4.90
2023-04-17T08:43:45.878Z,15.06
2023-04-17T08:44:45.969Z,25.00
2023-04-17T08:45:45.905Z,24.20
2023-04-17T08:46:45.985Z,25.44
2023-04-17T08:47:46.000Z,31.97
2023-04-17T08:48:46.018Z,28.78
2023-04-17T08:49:46.015Z,25.57
2023-04-17T08:50:46.116Z,26.59
2023-04-17T08:51:46.064Z,25.29
2023-04-17T08:52:46.086Z,31.05
2023-04-17T08:53:46.115Z,47.21
2023-04-17T08:54:46.574Z,56.99
2023-04-17T08:55:46.211Z,67.48
2023-04-17T08:56:46.228Z,76.99
2023-04-17T08:57:46.188Z,85.72
2023-04-17T08:58:46.278Z,91.46
2023-04-17T08:59:46.287Z,94.44
2023-04-17T09:00:46.351Z,98.66
2023-04-17T09:01:46.392Z,106.30
2023-04-17T09:02:46.596Z,113.26
2023-04-17T09:03:46.686Z,118.79
2023-04-17T09:04:47.445Z,125.13
2023-04-17T09:05:47.768Z,125.46
2023-04-17T09:06:46.767Z,127.03
2023-04-17T09:07:46.761Z,130.62
2023-04-17T09:08:46.785Z,136.03
2023-04-17T09:09:46.714Z,145.27
2023-04-17T09:10:47.140Z,151.49
2023-04-17T09:11:46.830Z,154.83
2023-04-17T09:12:46.885Z,156.40
2023-04-17T09:13:46.898Z,156.74
2023-04-17T09:14:46.992Z,159.86
2023-04-17T09:15:47.145Z,162.54
2023-04-17T09:16:47.023Z,163.21
2023-04-17T09:17:47.108Z,165.65
2023-04-17T09:18:47.140Z,167.35
2023-04-17T09:19:47.220Z,169.12
2023-04-17T09:20:47.628Z,169.95
2023-04-17T09:21:47.362Z,170.18
2023-04-17T09:22:47.356Z,170.46
2023-04-17T09:23:47.399Z,166.99
2023-04-17T09:24:47.541Z,167.83
2023-04-17T09:25:47.507Z,170.21
2023-04-17T09:26:47.568Z,166.53
2023-04-17T09:27:47.660Z,167.51
2023-04-17T09:28:47.656Z,169.81
2023-04-17T09:29:47.732Z,170.54
2023-04-17T09:30:47.743Z,170.64
2023-04-17T09:31:47.925Z,172.73
2023-04-17T09:32:47.880Z,168.89
2023-04-17T09:33:47.884Z,172.66
2023-04-17T09:34:47.960Z,175.44
2023-04-17T09:35:48.031Z,175.12
2023-04-17T09:36:48.045Z,176.70
2023-04-17T09:37:48.066Z,176.59
2023-04-17T09:38:48.114Z,175.85
2023-04-17T09:39:48.178Z,175.00
2023-04-17T09:40:48.633Z,175.92
2023-04-17T09:41:48.228Z,169.37
2023-04-17T09:42:48.270Z,170.58
2023-04-17T09:43:48.341Z,159.08
2023-04-17T09:44:48.368Z,141.15
2023-04-17T09:45:48.421Z,135.76
2023-04-17T09:46:48.500Z,132.36
2023-04-17T09:47:48.543Z,137.45
2023-04-17T09:48:48.592Z,140.76
2023-04-17T09:49:48.720Z,147.88
2023-04-17T09:50:48.680Z,155.13
2023-04-17T09:51:48.749Z,139.67
2023-04-17T09:52:48.907Z,124.30
2023-04-17T09:53:48.875Z,107.05
2023-04-17T09:54:48.914Z,114.20
2023-04-17T09:55:49.204Z,120.87
2023-04-17T09:56:49.072Z,133.23
2023-04-17T09:57:49.099Z,139.42
2023-04-17T09:58:49.191Z,151.14
2023-04-17T09:59:49.357Z,157.23
2023-04-17T10:00:49.423Z,161.18
2023-04-17T10:01:49.331Z,162.89
2023-04-17T10:02:49.546Z,165.81
2023-04-17T10:03:49.479Z,169.65
2023-04-17T10:04:49.446Z,173.11
2023-04-17T10:05:49.658Z,176.10
2023-04-17T10:06:49.534Z,180.54
2023-04-17T10:07:49.572Z,180.59
2023-04-17T10:08:49.539Z,183.59
2023-04-17T10:09:49.639Z,184.79
2023-04-17T10:10:49.620Z,186.33
2023-04-17T10:11:49.629Z,187.58
2023-04-17T10:12:49.645Z,189.84
2023-04-17T10:13:49.761Z,190.31
2023-04-17T10:14:50.040Z,190.74
2023-04-17T10:15:49.736Z,194.75
2023-04-17T10:16:50.420Z,194.81
2023-04-17T10:17:49.876Z,196.03
2023-04-17T10:18:49.791Z,197.29
2023-04-17T10:19:49.800Z,209.37
2023-04-17T10:20:49.797Z,206.62
2023-04-17T10:21:49.792Z,208.45
2023-04-17T10:22:49.841Z,214.59
2023-04-17T10:23:49.888Z,224.30
2023-04-17T10:24:49.856Z,221.26
2023-04-17T10:25:49.945Z,219.07
2023-04-17T10:26:49.906Z,217.45
2023-04-17T10:27:49.909Z,210.00
2023-04-17T10:28:49.942Z,210.09
2023-04-17T10:29:49.929Z,213.57
2023-04-17T10:30:49.938Z,211.74
2023-04-17T10:31:50.198Z,214.71
2023-04-17T10:32:50.056Z,217.39
2023-04-17T10:33:49.972Z,217.54
2023-04-17T10:34:49.984Z,219.00
2023-04-17T10:35:50.422Z,218.87
2023-04-17T10:36:49.989Z,211.99
2023-04-17T10:37:50.008Z,201.80
2023-04-17T10:38:49.983Z,162.72
2023-04-17T10:39:50.048Z,134.29
2023-04-17T10:40:50.093Z,112.09
2023-04-17T10:41:50.670Z,102.70
2023-04-17T10:42:50.170Z,84.50
2023-04-17T10:43:50.139Z,74.09
2023-04-17T10:44:50.248Z,76.36
2023-04-17T10:45:50.248Z,81.53
2023-04-17T10:46:50.672Z,88.95
2023-04-17T10:47:50.321Z,91.64
2023-04-17T10:48:50.321Z,95.48
2023-04-17T10:49:50.323Z,97.47
2023-04-17T10:50:50.328Z,102.44
2023-04-17T10:51:50.292Z,103.49
2023-04-17T10:52:50.327Z,104.38
2023-04-17T10:53:50.337Z,106.82
2023-04-17T10:54:50.327Z,108.77
2023-04-17T10:55:50.428Z,110.70
2023-04-17T10:56:50.359Z,114.84
2023-04-17T10:57:50.425Z,119.91
2023-04-17T10:58:50.492Z,119.69
2023-04-17T10:59:50.492Z,118.84
2023-04-17T11:00:50.740Z,120.52
2023-04-17T11:01:50.845Z,122.05
2023-04-17T11:02:50.772Z,125.54
2023-04-17T11:03:50.700Z,128.03
2023-04-17T11:04:50.811Z,128.72
2023-04-17T11:05:50.845Z,129.47
2023-04-17T11:06:50.901Z,131.98
2023-04-17T11:07:50.966Z,132.83
2023-04-17T11:08:50.953Z,139.26
2023-04-17T11:09:51.009Z,143.53
2023-04-17T11:10:51.006Z,142.41
2023-04-17T11:11:51.081Z,144.53
2023-04-17T11:12:51.144Z,143.58
2023-04-17T11:13:51.177Z,140.72
2023-04-17T11:14:51.252Z,139.06
2023-04-17T11:15:51.309Z,138.85
2023-04-17T11:16:51.426Z,140.38
2023-04-17T11:17:51.461Z,143.23
2023-04-17T11:18:51.493Z,143.27
2023-04-17T11:19:51.544Z,143.25
2023-04-17T11:20:51.636Z,142.94
2023-04-17T11:21:52.740Z,143.56
2023-04-17T11:22:51.767Z,144.46
2023-04-17T11:23:51.806Z,141.58
2023-04-17T11:24:51.873Z,140.93
2023-04-17T11:25:51.919Z,138.96
2023-04-17T11:26:52.202Z,138.89
2023-04-17T11:27:52.074Z,139.48
2023-04-17T11:28:52.112Z,138.58
2023-04-17T11:29:52.152Z,139.65
2023-04-17T11:30:52.199Z,141.40
2023-04-17T11:31:52.285Z,139.86
2023-04-17T11:32:52.235Z,141.29
2023-04-17T11:33:52.223Z,141.94
2023-04-17T11:34:52.185Z,146.45
2023-04-17T11:35:52.178Z,146.24
2023-04-17T11:36:52.672Z,150.67
2023-04-17T11:37:52.182Z,143.04
2023-04-17T11:38:53.915Z,141.44
2023-04-17T11:39:52.175Z,143.23
2023-04-17T11:40:52.185Z,145.12
2023-04-17T11:41:52.199Z,148.33
2023-04-17T11:42:52.163Z,148.93
2023-04-17T11:43:52.137Z,148.26
2023-04-17T11:44:52.168Z,146.73
2023-04-17T11:45:52.148Z,144.50
2023-04-17T11:46:52.118Z,144.60
2023-04-17T11:47:52.196Z,147.77
2023-04-17T11:48:52.137Z,145.59
2023-04-17T11:49:52.092Z,145.50
2023-04-17T11:50:52.063Z,142.22
2023-04-17T11:51:52.074Z,139.63
2023-04-17T11:52:52.061Z,141.07
2023-04-17T11:53:52.062Z,139.61
2023-04-17T11:54:52.055Z,139.22
2023-04-17T11:55:52.046Z,140.47
2023-04-17T11:56:52.048Z,141.56
2023-04-17T11:57:52.018Z,139.97
2023-04-17T11:58:52.045Z,139.37
2023-04-17T11:59:52.030Z,141.27
2023-04-17T12:00:52.006Z,141.03
2023-04-17T12:01:52.041Z,140.18
2023-04-17T12:02:52.128Z,138.96
2023-04-17T12:03:52.107Z,139.89
2023-04-17T12:04:52.099Z,139.58
2023-04-17T12:05:51.983Z,135.22
2023-04-17T12:06:51.951Z,134.20
2023-04-17T12:07:51.979Z,133.64
2023-04-17T12:08:51.964Z,133.08
2023-04-17T12:09:51.966Z,131.90
2023-04-17T12:10:51.946Z,129.54
2023-04-17T12:11:51.980Z,128.00
2023-04-17T12:12:51.947Z,131.05
2023-04-17T12:13:51.953Z,134.56
2023-04-17T12:14:51.904Z,133.94
2023-04-17T12:15:51.920Z,132.40
2023-04-17T12:16:51.946Z,130.42
2023-04-17T12:17:51.958Z,133.48
2023-04-17T12:18:51.917Z,131.94
2023-04-17T12:19:51.901Z,126.90
2023-04-17T12:20:51.897Z,125.61
2023-04-17T12:21:51.866Z,124.94
2023-04-17T12:22:51.894Z,126.18
2023-04-17T12:23:51.924Z,125.19
2023-04-17T12:24:51.973Z,123.80
2023-04-17T12:25:52.044Z,125.98
2023-04-17T12:26:52.085Z,131.53
2023-04-17T12:27:52.186Z,134.31
2023-04-17T12:28:52.236Z,136.28
2023-04-17T12:29:52.298Z,131.41
2023-04-17T12:30:52.313Z,129.95